| Date | Temp | Humidity | Rainfall | Dew Point | Wind Direction | Wind Speed | Wind Pressure | Condition | Visibility |
|---|---|---|---|---|---|---|---|---|---|
| 2025-04-15 14:09:11 | 30 | 79 | 0.0 | 25 | 310 | 22 | 1009 | Distant showers | 15 km |
| 2025-04-15 12:59:11 | 30 | 75 | 0.00 | 25 | 310 | 24.7 | 1010 | Cloudy | 20 KM |
| 2025-04-15 11:59:19 | 31 | 71 | 0.00 | 25 | 290 | 17.1 | 1011 | Cloudy | 20 KM |
| 2025-04-15 11:04:00 | 32 | 67 | 0.00 | 25 | 250 | 11.4 | 1012 | Cloudy | 20 KM |
| 2025-04-15 10:04:24 | 30 | 73 | 0.00 | 25 | 210 | 7.6 | 1012 | Partly Cloudy (Day) | 10 Km |
| 2025-04-15 09:01:55 | 27 | 83 | 0.00 | 24 | 160 | 5.7 | 1012 | Partly Cloudy (Day) | 20 km |
| 2025-04-15 07:59:31 | 190 | 91 | 24 | 190 | 9.5 | 1011 | Partly Cloudy (Day) | 20 KM | |
| 2025-04-15 06:59:53 | 25 | 96 | 24 | 240 | 1.9 | 1011 | Mist | 10 KM | |
| 2025-04-15 05:58:21 | 25 | 95 | 24 | 220 | 3.8 | 1010 | Partly Cloudy (Day) | 10 KM | |
| 2025-04-15 04:59:17 | 25 | 95 | 24 | 190 | 3.8 | 1009 | Partly Cloudy (Night) | 10 KM | |
| 2025-04-15 04:00:21 | 25 | 95 | 24 | 190 | 5.7 | 1009 | Partly Cloudy (Night) | 10 KM | |
| 2025-04-15 03:03:12 | 25 | 96 | 24 | 190 | 3.8 | 1010 | Partly Cloudy (Night) | 10 KM | |
| 2025-04-15 02:00:22 | 25 | 97 | 24 | 150 | 5.7 | 1010 | Partly Cloudy (Night) | 10 KM | |
| 2025-04-15 00:58:37 | 25 | 94 | 24 | 220 | 7.6 | 1010 | Partly Cloudy (Night) | 10 KM | |
| 2025-04-14 23:58:01 | 25 | 96 | 24 | 210 | 3.8 | 1011 | Rain | 10 KM | |
| 2025-04-14 23:09:45 | 25 | 95 | 24 | 210 | 7.6 | 1012 | Rain | 9 KM | |
| 2025-04-14 21:59:59 | 25 | 94 | 24 | 250 | 3.8 | 1012 | Thundershowers | 9 KM | |
| 2025-04-14 20:14:26 | 26 | 94 | 1.00 | 25 | 180 | 13.3 | 1010 | Thundershowers | 6 KM |
| 2025-04-14 19:01:16 | 27 | 89 | 0.0 | 26 | 270 | 7.6 | 1009 | Thundershowers | 8 KM |
| 2025-04-14 18:01:40 | 29 | 81 | 0.00 | 25 | 290 | 9.5 | 1008 | Thundershowers | 10 KM |
| 2025-04-14 17:04:00 | 29 | 82 | 0.00 | 25 | 290 | 7.6 | 1008 | Thundershowers | 10 km |
| 2025-04-14 15:59:46 | 29 | 82 | 0.00 | 25 | 290 | 11.4 | 1008 | Shower Day | 10 km |
| 2025-04-14 15:02:43 | 29 | 81 | 0.0 | 25 | 280 | 13.3 | 1008 | Partly Cloudy (Day) | 10 km |
| 2025-04-14 14:01:49 | 29 | 76 | 0.00 | 25 | 290 | 15.2 | 1008 | Partly Cloudy (Day) | 10 km |
| 2025-04-14 12:57:19 | 31 | 70 | 0.0 | 25 | 250 | 13.3 | 1010 | Partly Cloudy (Day) | 20 KM |